Главная страница
METAR-TAF:

METAR-TAF

Аэропорты :

Волгоград, Россия

Гумрак

широта: 48-47N, долгота: 044-22E, высота над уровнем моря: 145 м

Текущие метеонаблюдения

Эта сводка был подготовлена 24 минут назад, в 10:00 UTC
Ветер 6 Узел от восточный, изменяющийся между северо-восточный и юго-восточный
Температура 3°C
Влажность 81%
Давление 1023 hPa
Видимость 10 км и более
Рассеянная облачность на высоте 2900 фута

METAR: URWW 231000Z 09003MPS 050V130 9999 BKN029 03/00 Q1023 R06/010070 NOSIG

Время: 13:24 (10:24 UTC)

Прогноз

Эта сводка был подготовлена 2 часа и 24 минут назад, в 08:00 UTC
Прогноз действительный с 23-го 09 UTC до 23-го 18 UTC
Ветер 6 Узел от северо-восточный с порывами до 16 Узел
Видимость: 3100 м
Сплошная облачность на высоте 700 фута
дымка
временами
С 23-го 09 UTC до 23-го 18 UTC
Ветер 2 Узел переменных направлений
Отдельные облака на высоте 300 фута

TAF: URWW 230800Z 2309/2318 05003G08MPS 3100 BR OVC007 TEMPO 2309/2318 VRB01MPS SCT003

Метеонаблюдения и прогнозы для более 4000 аэропортов (сводки METAR и TAF).

Имеющиеся станции представлены на карте желтыми и красными точками.

Чтобы увидеть название станции, наведите на нее мышь.

Затем щелкните, чтобы увидеть метеонаблюдения и метеопрогнозы.

Управление картой: чтобы увеличить масштаб, щелкните зеленые кнопки с черным крестиком; чтобы уменьшить масштаб, щелкните зеленую кнопку с тире; для просмотра соседних карт щелкайте зеленые стрелки.


METAR-TAF: